createdAt,value
2023-01-27T00:02:12.880Z,96.70
2023-01-27T00:05:39.963Z,85.10
2023-01-27T00:09:07.390Z,102.30
2023-01-27T00:12:52.088Z,96.90
2023-01-27T00:16:19.222Z,84.60
2023-01-27T00:19:46.181Z,95.40
2023-01-27T00:23:35.941Z,120.80
2023-01-27T00:27:03.257Z,105.10
2023-01-27T00:30:30.264Z,92.00
2023-01-27T00:34:02.282Z,83.70
2023-01-27T00:37:29.465Z,74.00
2023-01-27T00:41:15.072Z,76.20
2023-01-27T00:45:03.553Z,78.30
2023-01-27T00:48:30.974Z,74.20
2023-01-27T00:51:58.050Z,66.60
2023-01-27T00:55:25.499Z,71.20
2023-01-27T00:58:52.610Z,62.40
2023-01-27T01:02:19.627Z,73.60
2023-01-27T01:05:47.130Z,90.50
2023-01-27T01:09:14.593Z,63.00
2023-01-27T01:12:41.679Z,86.80
2023-01-27T01:16:11.800Z,92.60
2023-01-27T01:19:39.554Z,83.80
2023-01-27T01:23:07.056Z,66.20
2023-01-27T01:26:34.702Z,51.70
2023-01-27T01:30:02.477Z,95.90
2023-01-27T01:33:29.844Z,90.90
2023-01-27T01:36:58.355Z,89.90
2023-01-27T01:40:26.109Z,82.00
2023-01-27T01:43:53.948Z,92.70
2023-01-27T01:47:21.786Z,92.00
2023-01-27T01:50:56.101Z,97.20
2023-01-27T01:54:27.044Z,87.10
2023-01-27T01:57:58.134Z,77.80
2023-01-27T02:01:25.193Z,65.30
2023-01-27T02:04:59.264Z,76.90
2023-01-27T02:08:30.744Z,100.80
2023-01-27T02:11:59.524Z,57.70
2023-01-27T02:15:26.911Z,69.10
2023-01-27T02:18:54.139Z,103.20
2023-01-27T02:22:27.211Z,81.50
2023-01-27T02:25:59.330Z,98.10
2023-01-27T02:29:28.886Z,100.80
2023-01-27T02:32:56.055Z,87.00
2023-01-27T02:36:28.665Z,106.10
2023-01-27T02:39:59.406Z,99.00
2023-01-27T02:43:27.346Z,70.10
2023-01-27T02:46:55.031Z,98.40
2023-01-27T02:50:22.216Z,102.90
2023-01-27T02:53:49.410Z,80.10
2023-01-27T02:57:16.345Z,95.00
2023-01-27T03:00:53.579Z,94.90
2023-01-27T03:04:20.866Z,90.40
2023-01-27T03:07:47.915Z,76.00
2023-01-27T03:11:15.261Z,86.20
2023-01-27T03:15:00.315Z,76.10
2023-01-27T03:18:28.741Z,87.10
2023-01-27T03:21:56.293Z,86.40
2023-01-27T03:25:25.218Z,95.50
2023-01-27T03:29:08.912Z,89.00
2023-01-27T03:32:38.677Z,89.90
2023-01-27T03:36:44.136Z,93.70
2023-01-27T03:40:32.732Z,94.50
2023-01-27T03:44:17.457Z,86.30
2023-01-27T03:47:44.709Z,94.30
2023-01-27T03:51:13.008Z,90.50
2023-01-27T03:54:40.297Z,91.90
2023-01-27T03:58:18.531Z,90.70
2023-01-27T04:01:45.673Z,84.50
2023-01-27T04:05:30.975Z,86.50
2023-01-27T04:08:58.886Z,88.10
2023-01-27T04:12:26.111Z,97.00
2023-01-27T04:15:56.901Z,66.30
2023-01-27T04:19:24.026Z,93.60
2023-01-27T04:22:51.031Z,76.10
2023-01-27T04:26:17.963Z,79.70
2023-01-27T04:29:45.705Z,80.10
2023-01-27T04:33:15.303Z,87.20
2023-01-27T04:36:42.972Z,76.80
2023-01-27T04:40:13.377Z,84.50
2023-01-27T04:43:40.356Z,87.10
2023-01-27T04:47:07.651Z,139.10
2023-01-27T04:50:34.837Z,92.90
2023-01-27T04:54:03.923Z,91.90
2023-01-27T04:57:31.249Z,320.90
2023-01-27T05:00:58.400Z,86.90
2023-01-27T05:04:26.510Z,91.20
2023-01-27T05:07:53.684Z,96.90
2023-01-27T05:11:21.399Z,68.20
2023-01-27T05:14:48.476Z,91.30
2023-01-27T05:18:15.924Z,104.70
2023-01-27T05:21:44.481Z,99.40
2023-01-27T05:25:12.528Z,60.60
2023-01-27T05:28:41.722Z,110.40
2023-01-27T05:32:08.927Z,95.90
2023-01-27T05:35:37.420Z,104.20
2023-01-27T05:39:05.277Z,107.40
2023-01-27T05:42:33.142Z,101.40
2023-01-27T05:46:12.316Z,117.80
2023-01-27T05:49:39.407Z,113.60
2023-01-27T05:53:06.516Z,123.20
2023-01-27T05:56:33.964Z,132.70
2023-01-27T06:00:00.893Z,116.90
2023-01-27T06:03:28.448Z,110.10
2023-01-27T06:06:55.459Z,113.80
2023-01-27T06:10:22.324Z,122.80
2023-01-27T06:13:49.792Z,131.30
2023-01-27T06:17:17.598Z,143.30
2023-01-27T06:20:45.248Z,134.40
2023-01-27T06:24:13.737Z,129.10
2023-01-27T06:27:41.084Z,125.00
2023-01-27T06:31:12.901Z,127.60
2023-01-27T06:34:40.246Z,139.60
2023-01-27T06:38:08.916Z,129.90
2023-01-27T06:41:35.931Z,94.20
2023-01-27T06:45:03.017Z,148.90
2023-01-27T06:48:30.388Z,132.60
2023-01-27T06:51:57.449Z,136.40
2023-01-27T06:55:24.730Z,115.50
2023-01-27T06:58:51.863Z,110.40
2023-01-27T07:02:19.056Z,107.00
2023-01-27T07:05:46.877Z,107.10
2023-01-27T07:09:13.960Z,98.60
2023-01-27T07:12:40.962Z,91.40
2023-01-27T07:16:08.836Z,69.90
2023-01-27T07:19:36.079Z,47.90
2023-01-27T07:23:04.852Z,85.00
2023-01-27T07:26:32.337Z,104.60
2023-01-27T07:29:59.359Z,66.60
2023-01-27T07:33:27.056Z,78.20
2023-01-27T07:36:54.302Z,94.90
2023-01-27T07:40:22.387Z,76.50
2023-01-27T07:43:51.654Z,89.70
2023-01-27T07:47:19.504Z,121.00
2023-01-27T07:50:46.604Z,99.60
2023-01-27T07:54:13.916Z,77.40
2023-01-27T07:57:40.808Z,71.80
2023-01-27T08:01:09.906Z,121.10
2023-01-27T08:04:47.204Z,63.00
2023-01-27T08:08:20.279Z,66.50
2023-01-27T08:11:47.241Z,71.40
2023-01-27T08:15:17.703Z,84.10
2023-01-27T08:18:45.919Z,79.50
2023-01-27T08:22:19.813Z,91.50
2023-01-27T08:25:52.120Z,81.10
2023-01-27T08:29:19.135Z,87.70
2023-01-27T08:32:46.592Z,87.60
2023-01-27T08:36:16.852Z,80.70
2023-01-27T08:39:44.021Z,89.30
2023-01-27T08:43:11.860Z,85.10
2023-01-27T08:46:38.832Z,79.80
2023-01-27T08:50:06.748Z,46.70
2023-01-27T08:53:34.032Z,44.70
2023-01-27T08:57:01.117Z,62.40
2023-01-27T09:00:28.555Z,70.80
2023-01-27T09:03:55.543Z,68.60
2023-01-27T09:07:23.033Z,85.70
2023-01-27T09:10:50.066Z,54.40
2023-01-27T09:14:17.195Z,51.20
2023-01-27T09:17:45.218Z,67.80
2023-01-27T09:21:12.581Z,64.70
2023-01-27T09:24:39.567Z,80.70
2023-01-27T09:28:06.821Z,83.60
2023-01-27T09:31:34.555Z,64.10
2023-01-27T09:35:02.173Z,68.50
2023-01-27T09:38:32.659Z,50.50
2023-01-27T09:42:21.132Z,53.20
2023-01-27T09:46:03.066Z,58.30
2023-01-27T09:49:43.317Z,56.10
2023-01-27T09:53:27.563Z,58.30
2023-01-27T09:57:06.751Z,57.20
2023-01-27T10:00:44.841Z,65.90
2023-01-27T10:04:31.521Z,67.30
2023-01-27T10:08:29.954Z,54.70
2023-01-27T10:12:07.192Z,54.40
2023-01-27T10:15:45.168Z,42.80
2023-01-27T10:19:31.777Z,42.90
2023-01-27T10:23:10.406Z,37.80
2023-01-27T10:26:43.188Z,47.80
2023-01-27T10:30:15.348Z,32.10
2023-01-27T10:33:51.827Z,52.40
2023-01-27T10:37:28.445Z,59.80
2023-01-27T10:41:06.135Z,60.90
2023-01-27T10:44:59.849Z,47.80
2023-01-27T10:48:35.956Z,50.50
2023-01-27T10:52:10.017Z,50.90
2023-01-27T10:55:43.332Z,56.30
2023-01-27T10:59:18.033Z,61.30
2023-01-27T11:02:51.024Z,57.60
2023-01-27T11:06:21.510Z,51.30
2023-01-27T11:09:56.702Z,57.60
2023-01-27T11:13:23.722Z,45.80
2023-01-27T11:16:52.653Z,54.70
2023-01-27T11:20:30.824Z,60.30
2023-01-27T11:24:02.140Z,62.90
2023-01-27T11:27:50.343Z,58.80
2023-01-27T11:31:37.701Z,54.10
2023-01-27T11:35:10.379Z,56.90
2023-01-27T11:38:38.174Z,56.30
2023-01-27T11:42:06.695Z,53.10
2023-01-27T11:45:38.196Z,50.00
2023-01-27T11:49:06.388Z,44.70
2023-01-27T11:52:34.322Z,44.10
2023-01-27T11:56:05.855Z,57.60
2023-01-27T11:59:39.626Z,39.00
2023-01-27T12:03:17.749Z,57.20
2023-01-27T12:06:48.682Z,51.40
2023-01-27T12:10:30.582Z,56.80
2023-01-27T12:14:00.207Z,57.40
2023-01-27T12:17:34.222Z,57.10
2023-01-27T12:21:03.511Z,54.10
2023-01-27T12:24:33.676Z,61.40
2023-01-27T12:28:04.147Z,60.80
2023-01-27T12:31:34.363Z,65.50
2023-01-27T12:35:03.432Z,109.10
2023-01-27T12:38:35.849Z,71.30
2023-01-27T12:42:03.016Z,53.20
2023-01-27T12:45:35.036Z,59.50
2023-01-27T12:49:14.719Z,51.60
2023-01-27T12:56:16.126Z,80.30
2023-01-27T12:59:49.699Z,70.30
2023-01-27T13:03:17.484Z,73.70
2023-01-27T13:06:50.430Z,66.40
2023-01-27T13:10:23.558Z,62.00
2023-01-27T13:13:53.864Z,115.20
2023-01-27T13:17:37.588Z,70.50
2023-01-27T13:21:14.337Z,67.10
2023-01-27T13:24:43.840Z,91.10
2023-01-27T13:28:15.163Z,71.50
2023-01-27T13:31:47.191Z,66.00
2023-01-27T13:35:23.900Z,56.70
2023-01-27T13:38:56.863Z,63.40
2023-01-27T13:42:30.134Z,56.80
2023-01-27T13:46:03.867Z,52.10
2023-01-27T13:49:37.875Z,60.00
2023-01-27T13:53:07.165Z,85.60
2023-01-27T13:56:49.612Z,99.60
2023-01-27T14:00:23.984Z,73.90
2023-01-27T14:04:24.048Z,62.40
2023-01-27T14:07:59.411Z,66.40
2023-01-27T14:11:33.931Z,65.90
2023-01-27T14:15:16.026Z,73.20
2023-01-27T14:18:47.885Z,55.70
2023-01-27T14:22:25.604Z,118.80
2023-01-27T14:26:07.636Z,76.90
2023-01-27T14:29:40.620Z,72.90
2023-01-27T14:33:16.898Z,72.40
2023-01-27T14:36:52.907Z,69.10
2023-01-27T14:40:27.594Z,63.80
2023-01-27T14:44:03.609Z,64.80
2023-01-27T14:47:40.031Z,74.80
2023-01-27T14:51:15.715Z,73.50
2023-01-27T14:55:05.297Z,76.30
2023-01-27T14:58:43.923Z,81.50
2023-01-27T15:02:29.706Z,61.70
2023-01-27T15:06:03.993Z,73.10
2023-01-27T15:09:43.784Z,74.00
2023-01-27T15:13:33.265Z,75.70
2023-01-27T15:17:21.945Z,80.00
2023-01-27T15:21:18.695Z,61.10
2023-01-27T15:25:02.616Z,83.50
2023-01-27T15:28:32.920Z,86.20
2023-01-27T15:32:29.391Z,70.30
2023-01-27T15:36:20.754Z,87.40
2023-01-27T15:40:05.497Z,53.70
2023-01-27T15:43:38.051Z,69.10
2023-01-27T15:47:13.859Z,81.10
2023-01-27T15:50:50.335Z,83.70
2023-01-27T15:54:20.560Z,95.40
2023-01-27T15:57:47.753Z,84.20
2023-01-27T16:01:27.991Z,88.60
2023-01-27T16:05:06.723Z,124.40
2023-01-27T16:08:43.056Z,152.70
2023-01-27T16:12:39.802Z,51.10
2023-01-27T16:16:33.952Z,53.80
2023-01-27T16:20:23.263Z,57.90
2023-01-27T16:23:57.662Z,56.80
2023-01-27T16:27:39.435Z,52.30
2023-01-27T16:31:13.989Z,55.70
2023-01-27T16:34:46.513Z,45.20
2023-01-27T16:38:25.501Z,43.00
2023-01-27T16:41:57.871Z,47.00
2023-01-27T16:45:27.698Z,40.70
2023-01-27T16:48:55.344Z,40.00
2023-01-27T16:52:40.423Z,55.50
2023-01-27T16:56:18.964Z,43.00
2023-01-27T16:59:48.077Z,38.90
2023-01-27T17:03:20.315Z,33.70
2023-01-27T17:06:47.745Z,50.10
2023-01-27T17:10:32.982Z,48.10
2023-01-27T17:14:03.328Z,46.80
2023-01-27T17:17:35.515Z,57.10
2023-01-27T17:21:03.751Z,62.00
2023-01-27T17:24:34.445Z,50.40
2023-01-27T17:28:04.135Z,47.20
2023-01-27T17:31:33.041Z,29.10
2023-01-27T17:35:02.964Z,31.80
2023-01-27T17:38:43.835Z,23.50
2023-01-27T17:42:17.070Z,29.20
2023-01-27T17:45:45.212Z,31.40
2023-01-27T17:49:17.606Z,20.60
2023-01-27T17:52:52.405Z,30.90
2023-01-27T17:56:23.197Z,35.30
2023-01-27T17:59:58.622Z,18.60
2023-01-27T18:03:28.257Z,36.90
2023-01-27T18:06:55.908Z,40.20
2023-01-27T18:10:29.351Z,38.10
2023-01-27T18:13:56.962Z,37.20
2023-01-27T18:17:27.651Z,42.40
2023-01-27T18:21:06.740Z,39.00
2023-01-27T18:24:34.447Z,45.50
2023-01-27T18:28:02.041Z,51.90
2023-01-27T18:31:32.240Z,43.10
2023-01-27T18:35:00.527Z,24.10
2023-01-27T18:38:31.097Z,34.00
2023-01-27T18:41:58.152Z,21.30
2023-01-27T18:45:25.592Z,30.00
2023-01-27T18:48:53.331Z,13.60
2023-01-27T18:52:20.739Z,17.70
2023-01-27T18:55:48.365Z,17.20
2023-01-27T18:59:15.530Z,11.00
2023-01-27T19:02:46.502Z,13.70
2023-01-27T19:06:19.157Z,20.80
2023-01-27T19:09:47.662Z,13.40
2023-01-27T19:13:15.799Z,18.30
2023-01-27T19:16:43.139Z,17.00
2023-01-27T19:20:19.792Z,17.20
2023-01-27T19:23:49.579Z,39.00
2023-01-27T19:27:19.077Z,26.60
2023-01-27T19:30:46.916Z,19.80
2023-01-27T19:34:16.714Z,16.50
2023-01-27T19:37:44.550Z,18.70
2023-01-27T19:41:12.499Z,17.40
2023-01-27T19:44:39.735Z,16.30
2023-01-27T19:48:12.312Z,11.90
2023-01-27T19:51:39.665Z,36.60
2023-01-27T19:55:09.251Z,22.90
2023-01-27T19:58:37.725Z,16.70
2023-01-27T20:02:06.416Z,21.50
2023-01-27T20:05:35.734Z,19.30
2023-01-27T20:09:06.136Z,24.10
2023-01-27T20:12:36.383Z,14.10
2023-01-27T20:16:05.749Z,9.50
2023-01-27T20:19:33.813Z,8.70
2023-01-27T20:23:03.029Z,15.70
2023-01-27T20:26:32.535Z,12.20
2023-01-27T20:30:01.373Z,8.10
2023-01-27T20:36:57.877Z,13.00
2023-01-27T20:40:28.667Z,11.10
2023-01-27T20:44:00.755Z,14.20
2023-01-27T20:47:29.120Z,17.20
2023-01-27T20:51:06.107Z,19.80
2023-01-27T20:54:33.973Z,18.00
2023-01-27T20:58:02.272Z,12.00
2023-01-27T21:01:29.664Z,17.70
2023-01-27T21:04:57.677Z,10.30
2023-01-27T21:08:25.334Z,36.00
2023-01-27T21:11:53.141Z,14.40
2023-01-27T21:15:20.611Z,12.20
2023-01-27T21:18:48.359Z,12.40
2023-01-27T21:22:16.758Z,14.00
2023-01-27T21:25:44.625Z,11.80
2023-01-27T21:29:13.528Z,12.20
2023-01-27T21:32:40.863Z,12.70
2023-01-27T21:36:10.983Z,13.50
2023-01-27T21:39:38.126Z,19.50
2023-01-27T21:43:22.943Z,13.10
2023-01-27T21:46:50.431Z,16.20
2023-01-27T21:50:18.831Z,17.80
2023-01-27T21:53:45.873Z,15.40
2023-01-27T21:57:12.959Z,9.10
2023-01-27T22:00:40.273Z,16.90
2023-01-27T22:04:08.021Z,13.60
2023-01-27T22:07:38.333Z,12.50
2023-01-27T22:11:12.273Z,10.70
2023-01-27T22:14:39.567Z,14.10
2023-01-27T22:18:08.920Z,22.70
2023-01-27T22:21:35.939Z,12.90
2023-01-27T22:25:03.051Z,15.70
2023-01-27T22:28:30.215Z,10.10
2023-01-27T22:31:57.549Z,25.20
2023-01-27T22:35:24.641Z,16.20
2023-01-27T22:38:51.853Z,11.60
2023-01-27T22:42:18.824Z,16.60
2023-01-27T22:45:45.928Z,13.80
2023-01-27T22:49:13.032Z,14.60
2023-01-27T22:52:40.698Z,13.20
2023-01-27T22:56:09.579Z,7.80
2023-01-27T22:59:36.556Z,11.40
2023-01-27T23:03:04.056Z,14.10
2023-01-27T23:06:31.059Z,14.30
2023-01-27T23:09:58.108Z,8.30
2023-01-27T23:13:25.011Z,10.00
2023-01-27T23:16:53.003Z,12.30
2023-01-27T23:20:20.727Z,10.90
2023-01-27T23:23:47.868Z,11.00
2023-01-27T23:27:14.822Z,15.50
2023-01-27T23:30:43.663Z,16.80
2023-01-27T23:34:11.081Z,7.80
2023-01-27T23:37:38.196Z,8.90
2023-01-27T23:41:08.224Z,10.40
2023-01-27T23:44:35.183Z,10.60
2023-01-27T23:48:02.245Z,7.00
2023-01-27T23:51:29.251Z,4.10
2023-01-27T23:54:56.403Z,7.80
2023-01-27T23:58:23.979Z,5.60
